This is the latest recevied weather packets stored in our database for station/object N2PPN. If no packets are shown the sender has not sent any weather packets the latest 10 day(s).
| Time | Temp. | Humidity | Pressure | Rain* | Wind** | Luminosity | Snow |
|---|---|---|---|---|---|---|---|
| 1777750862 | 15.56° C | 54% | 1013.3 hPa | 0 mm | - | 463 W/m² | - |
| 1777750560 | 16.11° C | 54% | 1013.4 hPa | 0 mm | - | 237 W/m² | - |
| 1777750256 | 15.56° C | 55% | 1013.5 hPa | 0 mm | - | 726 W/m² | - |
| 1777749951 | 15.56° C | 54% | 1013.5 hPa | 0 mm | - | 260 W/m² | - |
| 1777749649 | 15.56° C | 55% | 1013.5 hPa | 0 mm | - | 233 W/m² | - |
| 1777749346 | 16.11° C | 53% | 1013.4 hPa | 0 mm | - | 252 W/m² | - |
| 1777749039 | 16.67° C | 53% | 1013.6 hPa | 0 mm | - | 338 W/m² | - |
| 1777748736 | 16.67° C | 51% | 1013.8 hPa | 0 mm | - | 756 W/m² | - |
| 1777748432 | 16.11° C | 54% | 1013.8 hPa | 0 mm | - | 363 W/m² | - |
| 1777748127 | 16.11° C | 54% | 1013.6 hPa | 0 mm | - | 335 W/m² | - |
| 1777747824 | 16.11° C | 54% | 1013.7 hPa | 0 mm | - | 590 W/m² | - |
| 1777747520 | 15.56° C | 57% | 1013.8 hPa | 0 mm | - | 844 W/m² | - |
| 1777747217 | 15.56° C | 58% | 1013.7 hPa | 0 mm | - | 302 W/m² | - |
| 1777746913 | 15.56° C | 59% | 1013.9 hPa | 0 mm | - | 290 W/m² | - |
| 1777746609 | 15.56° C | 59% | 1014 hPa | 0 mm | - | 426 W/m² | - |
| 1777746303 | 15° C | 61% | 1013.8 hPa | 0 mm | - | 455 W/m² | - |
| 1777745999 | 14.44° C | 64% | 1014.2 hPa | 0 mm | - | 207 W/m² | - |
| 1777745698 | 14.44° C | 65% | 1014 hPa | 0 mm | - | 140 W/m² | - |
| 1777745396 | 13.89° C | 69% | 1013.9 hPa | 0 mm | - | 118 W/m² | - |
| 1777745087 | 13.89° C | 72% | 1014 hPa | 0 mm | - | 114 W/m² | - |
| 1777744783 | 14.44° C | 70% | 1014.1 hPa | 0 mm | - | 167 W/m² | - |
| 1777744478 | 13.89° C | 73% | 1014.1 hPa | 0 mm | - | 375 W/m² | - |
| 1777744175 | 14.44° C | 73% | 1014 hPa | 0 mm | - | 406 W/m² | - |
| 1777743872 | 14.44° C | 72% | 1014 hPa | 0 mm | - | 501 W/m² | - |
| 1777743568 | 14.44° C | 68% | 1014.2 hPa | 0 mm | - | 505 W/m² | - |
* Rain latest hour (hover to see other rain measurements)
** Current wind speed in m/s (hover to see current wind gust speed)